createdAt,value
2022-08-26T00:02:07.183Z,6.63
2022-08-26T00:04:35.316Z,7.63
2022-08-26T00:07:03.214Z,8.77
2022-08-26T00:09:38.925Z,7.20
2022-08-26T00:12:09.319Z,9.32
2022-08-26T00:14:41.915Z,9.20
2022-08-26T00:17:10.228Z,6.65
2022-08-26T00:19:38.472Z,6.38
2022-08-26T00:22:06.819Z,8.30
2022-08-26T00:24:34.760Z,7.57
2022-08-26T00:27:02.708Z,8.25
2022-08-26T00:29:32.013Z,7.32
2022-08-26T00:32:05.138Z,10.30
2022-08-26T00:34:33.153Z,6.68
2022-08-26T00:37:01.047Z,16.15
2022-08-26T00:39:28.934Z,5.40
2022-08-26T00:41:57.158Z,6.07
2022-08-26T00:44:25.083Z,8.57
2022-08-26T00:46:58.269Z,6.03
2022-08-26T00:49:35.827Z,7.10
2022-08-26T00:52:09.674Z,10.38
2022-08-26T00:54:46.582Z,6.50
2022-08-26T00:57:17.522Z,6.30
2022-08-26T00:59:47.717Z,6.65
2022-08-26T01:02:20.842Z,7.57
2022-08-26T01:04:55.656Z,6.63
2022-08-26T01:07:26.118Z,8.18
2022-08-26T01:09:54.507Z,6.18
2022-08-26T01:12:24.730Z,8.77
2022-08-26T01:14:53.495Z,7.90
2022-08-26T01:17:21.500Z,6.53
2022-08-26T01:19:55.341Z,8.18
2022-08-26T01:22:28.656Z,6.28
2022-08-26T01:24:59.635Z,7.80
2022-08-26T01:27:32.641Z,7.85
2022-08-26T01:30:02.586Z,6.80
2022-08-26T01:32:32.699Z,6.40
2022-08-26T01:35:00.670Z,6.45
2022-08-26T01:37:34.040Z,6.78
2022-08-26T01:40:04.049Z,6.65
2022-08-26T01:42:32.031Z,7.25
2022-08-26T01:45:05.132Z,6.55
2022-08-26T01:47:35.386Z,6.00
2022-08-26T01:50:08.734Z,6.72
2022-08-26T01:52:40.932Z,6.45
2022-08-26T01:55:14.558Z,7.35
2022-08-26T01:58:02.193Z,8.20
2022-08-26T02:00:30.706Z,8.85
2022-08-26T02:03:13.223Z,6.93
2022-08-26T02:05:41.209Z,7.13
2022-08-26T02:08:11.862Z,11.52
2022-08-26T02:10:43.233Z,8.05
2022-08-26T02:13:12.495Z,11.32
2022-08-26T02:15:43.855Z,8.07
2022-08-26T02:18:13.998Z,8.60
2022-08-26T02:20:42.163Z,7.75
2022-08-26T02:23:10.067Z,6.20
2022-08-26T02:25:48.303Z,8.15
2022-08-26T02:28:17.206Z,7.10
2022-08-26T02:30:48.900Z,8.13
2022-08-26T02:33:16.834Z,6.82
2022-08-26T02:35:45.332Z,6.93
2022-08-26T02:38:14.677Z,8.10
2022-08-26T02:40:43.830Z,9.05
2022-08-26T02:43:13.407Z,7.32
2022-08-26T02:45:42.914Z,6.72
2022-08-26T02:48:13.805Z,8.50
2022-08-26T02:50:42.348Z,19.45
2022-08-26T02:53:12.151Z,7.15
2022-08-26T02:55:42.245Z,9.18
2022-08-26T02:58:11.223Z,7.88
2022-08-26T03:00:53.508Z,6.63
2022-08-26T03:03:22.409Z,8.30
2022-08-26T03:05:51.503Z,9.23
2022-08-26T03:08:19.915Z,7.60
2022-08-26T03:10:48.437Z,6.72
2022-08-26T03:13:18.112Z,7.18
2022-08-26T03:15:47.618Z,8.30
2022-08-26T03:18:16.175Z,8.85
2022-08-26T03:20:44.143Z,9.27
2022-08-26T03:23:12.577Z,7.30
2022-08-26T03:25:40.593Z,7.53
2022-08-26T03:28:09.680Z,6.63
2022-08-26T03:30:45.099Z,7.68
2022-08-26T03:33:15.840Z,8.27
2022-08-26T03:35:45.468Z,8.65
2022-08-26T03:38:13.370Z,7.20
2022-08-26T03:40:42.629Z,6.80
2022-08-26T03:43:13.638Z,7.65
2022-08-26T03:45:41.878Z,8.15
2022-08-26T03:48:11.268Z,7.72
2022-08-26T03:50:41.431Z,8.70
2022-08-26T03:53:13.058Z,7.20
2022-08-26T03:55:43.161Z,8.63
2022-08-26T03:58:11.908Z,12.05
2022-08-26T04:00:39.880Z,7.97
2022-08-26T04:03:10.045Z,8.90
2022-08-26T04:05:38.907Z,9.60
2022-08-26T04:08:08.357Z,8.20
2022-08-26T04:10:38.950Z,16.17
2022-08-26T04:13:07.245Z,11.63
2022-08-26T04:15:35.411Z,8.25
2022-08-26T04:18:03.310Z,10.70
2022-08-26T04:20:31.920Z,10.23
2022-08-26T04:22:59.800Z,9.82
2022-08-26T04:25:29.433Z,8.40
2022-08-26T04:27:57.589Z,7.25
2022-08-26T04:30:25.566Z,10.65
2022-08-26T04:32:53.484Z,8.73
2022-08-26T04:35:25.710Z,11.38
2022-08-26T04:37:54.346Z,8.38
2022-08-26T04:40:22.298Z,8.00
2022-08-26T04:42:51.539Z,7.57
2022-08-26T04:45:22.693Z,10.68
2022-08-26T04:47:54.615Z,8.48
2022-08-26T04:50:23.592Z,8.73
2022-08-26T04:52:51.472Z,9.32
2022-08-26T04:55:19.406Z,8.20
2022-08-26T04:57:47.882Z,7.50
2022-08-26T05:00:17.783Z,8.15
2022-08-26T05:02:46.034Z,8.27
2022-08-26T05:05:14.219Z,11.82
2022-08-26T05:07:42.374Z,9.93
2022-08-26T05:10:11.363Z,9.32
2022-08-26T05:12:39.250Z,7.82
2022-08-26T05:15:10.343Z,9.63
2022-08-26T05:17:39.678Z,9.55
2022-08-26T05:20:08.929Z,10.55
2022-08-26T05:22:36.776Z,7.63
2022-08-26T05:25:05.264Z,7.03
2022-08-26T05:27:33.183Z,12.40
2022-08-26T05:30:01.511Z,7.40
2022-08-26T05:32:29.445Z,7.88
2022-08-26T05:34:59.450Z,10.45
2022-08-26T05:37:28.638Z,7.50
2022-08-26T05:39:57.329Z,7.95
2022-08-26T05:42:25.919Z,8.57
2022-08-26T05:44:55.986Z,9.05
2022-08-26T05:47:24.558Z,8.02
2022-08-26T05:49:52.594Z,11.98
2022-08-26T05:52:24.702Z,9.18
2022-08-26T05:54:54.242Z,8.10
2022-08-26T05:57:23.218Z,10.85
2022-08-26T05:59:51.594Z,7.63
2022-08-26T06:02:19.629Z,11.52
2022-08-26T06:04:47.530Z,15.63
2022-08-26T06:07:17.008Z,10.15
2022-08-26T06:09:47.727Z,11.38
2022-08-26T06:12:15.753Z,7.72
2022-08-26T06:14:46.508Z,9.15
2022-08-26T06:17:16.880Z,9.05
2022-08-26T06:19:45.649Z,6.70
2022-08-26T06:22:27.486Z,9.85
2022-08-26T06:25:14.050Z,10.60
2022-08-26T06:27:41.906Z,7.22
2022-08-26T06:30:11.071Z,10.32
2022-08-26T06:32:40.371Z,7.03
2022-08-26T06:35:12.185Z,7.05
2022-08-26T06:37:40.350Z,7.30
2022-08-26T06:40:12.121Z,8.60
2022-08-26T06:42:40.286Z,9.02
2022-08-26T06:45:09.176Z,9.73
2022-08-26T06:47:37.253Z,7.32
2022-08-26T06:50:05.523Z,7.43
2022-08-26T06:52:33.490Z,8.18
2022-08-26T06:55:02.715Z,4.70
2022-08-26T06:57:32.915Z,7.07
2022-08-26T07:00:03.219Z,5.80
2022-08-26T07:02:32.035Z,5.82
2022-08-26T07:04:59.920Z,5.68
2022-08-26T07:07:27.795Z,8.70
2022-08-26T07:09:56.437Z,7.05
2022-08-26T07:12:26.034Z,6.97
2022-08-26T07:14:55.675Z,7.38
2022-08-26T07:17:25.558Z,13.05
2022-08-26T07:19:53.600Z,9.93
2022-08-26T07:22:21.514Z,5.13
2022-08-26T07:24:49.555Z,6.70
2022-08-26T07:27:18.470Z,5.80
2022-08-26T07:29:46.839Z,5.63
2022-08-26T07:32:17.230Z,7.28
2022-08-26T07:34:46.718Z,8.95
2022-08-26T07:37:14.767Z,5.00
2022-08-26T07:39:44.258Z,8.93
2022-08-26T07:42:14.138Z,6.28
2022-08-26T07:44:43.300Z,7.97
2022-08-26T07:47:25.255Z,7.68
2022-08-26T07:49:57.293Z,6.05
2022-08-26T07:52:27.441Z,6.88
2022-08-26T07:54:56.586Z,4.93
2022-08-26T07:57:24.634Z,4.63
2022-08-26T07:59:54.933Z,4.22
2022-08-26T08:02:23.635Z,4.85
2022-08-26T08:04:52.256Z,6.55
2022-08-26T08:07:38.256Z,8.90
2022-08-26T08:10:11.446Z,6.30
2022-08-26T08:12:39.741Z,7.57
2022-08-26T08:15:09.866Z,9.02
2022-08-26T08:17:38.110Z,5.80
2022-08-26T08:20:07.711Z,5.60
2022-08-26T08:22:36.970Z,6.15
2022-08-26T08:25:06.246Z,5.97
2022-08-26T08:27:36.346Z,10.35
2022-08-26T08:30:06.386Z,6.18
2022-08-26T08:32:35.363Z,4.00
2022-08-26T08:35:10.727Z,4.57
2022-08-26T08:37:40.996Z,12.55
2022-08-26T08:40:10.433Z,9.52
2022-08-26T08:42:46.953Z,7.20
2022-08-26T08:45:20.773Z,11.98
2022-08-26T08:47:54.749Z,7.70
2022-08-26T08:50:27.750Z,8.93
2022-08-26T08:53:08.935Z,7.68
2022-08-26T08:55:47.883Z,8.63
2022-08-26T08:58:20.580Z,15.25
2022-08-26T09:00:55.027Z,9.82
2022-08-26T09:03:36.708Z,8.38
2022-08-26T09:06:16.797Z,10.32
2022-08-26T09:08:50.517Z,10.30
2022-08-26T09:11:20.152Z,9.73
2022-08-26T09:13:50.662Z,9.70
2022-08-26T09:16:23.079Z,13.75
2022-08-26T09:19:04.756Z,19.20
2022-08-26T09:21:33.613Z,9.00
2022-08-26T09:24:04.916Z,15.15
2022-08-26T09:26:45.476Z,9.50
2022-08-26T09:29:22.348Z,14.27
2022-08-26T09:31:51.270Z,14.57
2022-08-26T09:34:22.366Z,13.77
2022-08-26T09:36:51.777Z,10.40
2022-08-26T09:39:33.522Z,16.27
2022-08-26T09:42:08.420Z,14.57
2022-08-26T09:44:54.176Z,16.98
2022-08-26T09:47:26.198Z,14.80
2022-08-26T09:50:09.709Z,11.38
2022-08-26T09:52:38.077Z,16.05
2022-08-26T09:55:15.083Z,11.43
2022-08-26T09:57:49.497Z,13.85
2022-08-26T10:00:34.725Z,9.00
2022-08-26T10:03:10.728Z,12.77
2022-08-26T10:05:43.684Z,10.82
2022-08-26T10:08:24.312Z,13.82
2022-08-26T10:10:55.291Z,12.50
2022-08-26T10:13:27.992Z,14.57
2022-08-26T10:16:07.066Z,13.98
2022-08-26T10:18:43.025Z,13.27
2022-08-26T10:21:14.918Z,12.30
2022-08-26T10:23:51.383Z,11.75
2022-08-26T10:26:26.272Z,17.63
2022-08-26T10:29:01.271Z,16.65
2022-08-26T10:31:38.239Z,14.30
2022-08-26T10:34:09.298Z,13.75
2022-08-26T10:37:15.538Z,15.85
2022-08-26T10:39:46.008Z,14.65
2022-08-26T10:42:23.028Z,11.70
2022-08-26T10:44:57.082Z,12.50
2022-08-26T10:47:33.726Z,12.88
2022-08-26T10:50:03.705Z,14.38
2022-08-26T10:52:42.246Z,16.63
2022-08-26T10:55:17.715Z,14.48
2022-08-26T10:57:56.117Z,14.85
2022-08-26T11:00:47.001Z,22.88
2022-08-26T11:03:32.486Z,13.57
2022-08-26T11:06:23.652Z,12.50
2022-08-26T11:08:53.687Z,15.85
2022-08-26T11:11:47.353Z,11.25
2022-08-26T11:14:41.153Z,17.55
2022-08-26T11:17:56.901Z,10.05
2022-08-26T11:20:36.570Z,13.40
2022-08-26T11:23:38.592Z,19.65
2022-08-26T11:26:30.056Z,10.52
2022-08-26T11:29:04.325Z,12.43
2022-08-26T11:31:56.642Z,18.27
2022-08-26T11:34:55.079Z,15.00
2022-08-26T11:37:32.869Z,9.07
2022-08-26T11:40:03.898Z,15.93
2022-08-26T11:42:39.486Z,12.73
2022-08-26T11:45:20.208Z,15.30
2022-08-26T11:47:49.815Z,13.65
2022-08-26T11:50:21.023Z,16.20
2022-08-26T11:52:54.200Z,10.18
2022-08-26T11:55:24.049Z,15.35
2022-08-26T11:57:55.437Z,11.82
2022-08-26T12:00:26.397Z,13.70
2022-08-26T12:02:56.532Z,14.57
2022-08-26T12:05:30.925Z,9.90
2022-08-26T12:08:04.108Z,14.15
2022-08-26T12:10:33.868Z,9.82
2022-08-26T12:13:03.764Z,7.70
2022-08-26T12:15:34.156Z,13.82
2022-08-26T12:18:28.681Z,9.70
2022-08-26T12:21:00.471Z,8.60
2022-08-26T12:23:42.242Z,11.63
2022-08-26T12:26:22.418Z,9.48
2022-08-26T12:28:54.702Z,10.88
2022-08-26T12:31:31.159Z,10.75
2022-08-26T12:34:02.024Z,10.70
2022-08-26T12:36:33.090Z,10.90
2022-08-26T12:39:09.406Z,9.60
2022-08-26T12:41:50.005Z,15.85
2022-08-26T12:44:40.493Z,11.30
2022-08-26T12:47:11.814Z,11.05
2022-08-26T12:49:43.622Z,14.93
2022-08-26T12:52:29.851Z,14.60
2022-08-26T12:54:59.890Z,9.18
2022-08-26T12:57:31.208Z,16.33
2022-08-26T13:00:39.260Z,11.75
2022-08-26T13:03:38.299Z,11.18
2022-08-26T13:08:45.305Z,10.25
2022-08-26T13:11:18.430Z,8.07
2022-08-26T13:13:47.156Z,10.93
2022-08-26T13:16:15.344Z,11.02
2022-08-26T13:18:43.331Z,8.35
2022-08-26T13:21:17.216Z,6.43
2022-08-26T13:23:45.079Z,7.15
2022-08-26T13:26:13.030Z,10.75
2022-08-26T13:28:42.133Z,8.85
2022-08-26T13:31:11.139Z,10.65
2022-08-26T13:33:39.793Z,12.05
2022-08-26T13:36:08.653Z,11.77
2022-08-26T13:38:37.943Z,13.55
2022-08-26T13:41:07.220Z,14.13
2022-08-26T13:43:35.601Z,11.63
2022-08-26T13:46:03.697Z,12.75
2022-08-26T13:48:33.859Z,7.28
2022-08-26T13:51:02.750Z,10.98
2022-08-26T13:53:37.322Z,10.23
2022-08-26T13:56:07.000Z,9.38
2022-08-26T13:58:38.339Z,9.30
2022-08-26T14:01:06.366Z,7.25
2022-08-26T14:03:34.336Z,10.98
2022-08-26T14:06:02.245Z,8.02
2022-08-26T14:08:30.702Z,7.90
2022-08-26T14:11:00.153Z,14.55
2022-08-26T14:13:28.389Z,13.80
2022-08-26T14:15:58.697Z,9.80
2022-08-26T14:18:31.260Z,11.07
2022-08-26T14:20:59.834Z,10.27
2022-08-26T14:23:28.436Z,7.95
2022-08-26T14:25:56.309Z,6.60
2022-08-26T14:30:59.529Z,17.63
2022-08-26T14:33:32.425Z,9.60
2022-08-26T14:36:14.582Z,18.40
2022-08-26T14:38:42.472Z,17.17
2022-08-26T14:41:11.033Z,10.80
2022-08-26T14:43:43.313Z,23.25
2022-08-26T14:46:11.224Z,13.63
2022-08-26T14:48:39.176Z,15.65
2022-08-26T14:51:07.127Z,12.93
2022-08-26T14:53:52.463Z,18.58
2022-08-26T14:56:20.508Z,14.27
2022-08-26T14:58:49.741Z,18.70
2022-08-26T15:01:17.752Z,12.57
2022-08-26T15:03:45.855Z,13.45
2022-08-26T15:06:16.410Z,19.02
2022-08-26T15:08:44.333Z,11.43
2022-08-26T15:11:12.235Z,9.48
2022-08-26T15:13:40.110Z,10.77
2022-08-26T15:16:09.474Z,9.57
2022-08-26T15:18:37.417Z,14.02
2022-08-26T15:21:06.506Z,11.02
2022-08-26T15:23:34.623Z,10.80
2022-08-26T15:26:03.064Z,13.55
2022-08-26T15:28:31.325Z,19.25
2022-08-26T15:31:00.556Z,18.45
2022-08-26T15:33:29.871Z,17.70
2022-08-26T15:36:00.415Z,15.60
2022-08-26T15:38:30.950Z,13.48
2022-08-26T15:41:02.867Z,15.50
2022-08-26T15:43:31.286Z,17.10
2022-08-26T15:45:59.691Z,10.85
2022-08-26T15:48:29.350Z,8.85
2022-08-26T15:50:59.555Z,9.80
2022-08-26T15:53:28.427Z,12.57
2022-08-26T15:55:57.661Z,6.18
2022-08-26T15:58:26.415Z,5.53
2022-08-26T16:00:55.294Z,8.35
2022-08-26T16:03:23.520Z,3.45
2022-08-26T16:05:53.411Z,6.95
2022-08-26T16:08:22.302Z,8.63
2022-08-26T16:10:51.260Z,4.75
2022-08-26T16:13:20.626Z,9.57
2022-08-26T16:15:48.794Z,7.95
2022-08-26T16:18:16.859Z,9.07
2022-08-26T16:20:51.603Z,6.15
2022-08-26T16:23:44.302Z,7.03
2022-08-26T16:26:15.084Z,5.78
2022-08-26T16:28:43.532Z,5.47
2022-08-26T16:31:11.917Z,4.75
2022-08-26T16:33:39.916Z,5.13
2022-08-26T16:36:09.320Z,10.30
2022-08-26T16:38:39.125Z,10.35
2022-08-26T16:41:09.204Z,10.10
2022-08-26T16:43:37.608Z,12.35
2022-08-26T16:46:07.317Z,9.73
2022-08-26T16:48:35.644Z,12.38
2022-08-26T16:51:03.650Z,11.00
2022-08-26T16:53:31.513Z,11.20
2022-08-26T16:55:59.368Z,10.57
2022-08-26T16:58:28.607Z,9.70
2022-08-26T17:00:57.703Z,14.50
2022-08-26T17:03:25.649Z,16.38
2022-08-26T17:05:53.990Z,12.10
2022-08-26T17:08:28.356Z,11.57
2022-08-26T17:10:57.009Z,14.63
2022-08-26T17:13:35.734Z,12.07
2022-08-26T17:16:07.347Z,12.38
2022-08-26T17:18:36.239Z,13.48
2022-08-26T17:21:06.625Z,11.38
2022-08-26T17:23:34.815Z,12.25
2022-08-26T17:26:02.888Z,13.45
2022-08-26T17:28:30.788Z,12.23
2022-08-26T17:30:59.415Z,10.80
2022-08-26T17:33:29.585Z,11.80
2022-08-26T17:35:57.725Z,7.32
2022-08-26T17:38:29.080Z,6.22
2022-08-26T17:40:57.345Z,6.68
2022-08-26T17:43:26.634Z,6.57
2022-08-26T17:45:58.938Z,6.82
2022-08-26T17:48:37.621Z,9.43
2022-08-26T17:51:08.650Z,8.93
2022-08-26T17:53:37.183Z,6.10
2022-08-26T17:56:08.496Z,6.82
2022-08-26T17:58:37.228Z,4.65
2022-08-26T18:01:06.217Z,5.72
2022-08-26T18:03:36.123Z,5.10
2022-08-26T18:06:08.606Z,4.82
2022-08-26T18:08:36.819Z,5.60
2022-08-26T18:11:08.430Z,5.40
2022-08-26T18:13:36.322Z,8.30
2022-08-26T18:16:06.110Z,6.47
2022-08-26T18:18:34.179Z,7.93
2022-08-26T18:21:04.399Z,5.75
2022-08-26T18:23:32.265Z,5.47
2022-08-26T18:26:00.115Z,6.05
2022-08-26T18:28:28.050Z,8.05
2022-08-26T18:30:57.464Z,8.50
2022-08-26T18:33:25.651Z,7.22
2022-08-26T18:35:53.912Z,4.10
2022-08-26T18:38:23.117Z,4.20
2022-08-26T18:40:56.282Z,5.38
2022-08-26T18:43:24.190Z,4.40
2022-08-26T18:46:02.519Z,4.88
2022-08-26T18:48:30.487Z,6.95
2022-08-26T18:51:00.402Z,8.95
2022-08-26T18:53:30.783Z,6.90
2022-08-26T18:55:59.056Z,6.43
2022-08-26T18:58:26.927Z,10.25
2022-08-26T19:00:54.817Z,9.45
2022-08-26T19:03:22.674Z,8.73
2022-08-26T19:05:50.678Z,8.25
2022-08-26T19:08:18.587Z,7.97
2022-08-26T19:10:47.944Z,6.82
2022-08-26T19:13:16.557Z,6.40
2022-08-26T19:15:46.379Z,6.78
2022-08-26T19:18:15.898Z,8.27
2022-08-26T19:20:46.762Z,5.72
2022-08-26T19:23:31.074Z,5.72
2022-08-26T19:26:05.030Z,7.88
2022-08-26T19:28:33.311Z,7.22
2022-08-26T19:31:02.611Z,7.68
2022-08-26T19:33:31.018Z,4.90
2022-08-26T19:35:58.996Z,6.80
2022-08-26T19:38:27.840Z,6.70
2022-08-26T19:40:55.791Z,7.22
2022-08-26T19:43:25.436Z,7.10
2022-08-26T19:45:53.333Z,6.13
2022-08-26T19:48:21.280Z,7.70
2022-08-26T19:50:49.474Z,6.80
2022-08-26T19:53:17.408Z,7.10
2022-08-26T19:55:45.272Z,7.35
2022-08-26T19:58:13.133Z,6.38
2022-08-26T20:00:42.779Z,9.77
2022-08-26T20:03:14.864Z,6.22
2022-08-26T20:05:44.073Z,8.13
2022-08-26T20:08:22.203Z,8.02
2022-08-26T20:10:51.132Z,13.15
2022-08-26T20:13:19.209Z,6.55
2022-08-26T20:15:48.437Z,8.13
2022-08-26T20:18:30.266Z,8.82
2022-08-26T20:21:15.565Z,9.45
2022-08-26T20:23:43.847Z,9.68
2022-08-26T20:26:11.829Z,6.63
2022-08-26T20:28:39.719Z,7.82
2022-08-26T20:31:09.569Z,11.07
2022-08-26T20:33:46.277Z,7.25
2022-08-26T20:36:14.926Z,7.72
2022-08-26T20:38:43.019Z,8.27
2022-08-26T20:41:11.795Z,7.13
2022-08-26T20:43:39.672Z,8.32
2022-08-26T20:46:17.287Z,9.10
2022-08-26T20:48:46.947Z,6.97
2022-08-26T20:51:14.875Z,6.63
2022-08-26T20:53:44.139Z,7.63
2022-08-26T20:56:14.148Z,8.07
2022-08-26T20:58:42.910Z,9.05
2022-08-26T21:01:19.210Z,6.88
2022-08-26T21:03:47.865Z,6.68
2022-08-26T21:06:15.859Z,9.07
2022-08-26T21:08:44.925Z,6.53
2022-08-26T21:11:13.220Z,10.07
2022-08-26T21:14:01.494Z,6.47
2022-08-26T21:16:30.878Z,6.83
2022-08-26T21:19:00.385Z,6.53
2022-08-26T21:21:28.808Z,7.55
2022-08-26T21:23:57.180Z,8.52
2022-08-26T21:26:25.488Z,8.95
2022-08-26T21:28:53.639Z,9.30
2022-08-26T21:31:24.001Z,7.50
2022-08-26T21:33:54.131Z,7.57
2022-08-26T21:36:22.009Z,8.15
2022-08-26T21:38:49.913Z,7.05
2022-08-26T21:41:23.153Z,7.18
2022-08-26T21:43:53.495Z,9.95
2022-08-26T21:46:23.581Z,9.30
2022-08-26T21:48:56.677Z,8.45
2022-08-26T21:51:26.620Z,8.02
2022-08-26T21:53:55.944Z,8.25
2022-08-26T21:56:26.159Z,9.65
2022-08-26T21:58:55.577Z,10.30
2022-08-26T22:01:25.141Z,11.63
2022-08-26T22:03:53.528Z,9.90
2022-08-26T22:06:26.804Z,7.85
2022-08-26T22:08:55.824Z,9.93
2022-08-26T22:11:25.805Z,10.88
2022-08-26T22:13:55.180Z,11.35
2022-08-26T22:16:23.329Z,12.95
2022-08-26T22:18:51.659Z,15.38
2022-08-26T22:21:23.728Z,12.35
2022-08-26T22:23:51.723Z,11.95
2022-08-26T22:26:26.254Z,10.48
2022-08-26T22:28:55.589Z,8.18
2022-08-26T22:31:37.147Z,10.85
2022-08-26T22:34:08.224Z,11.38
2022-08-26T22:36:43.186Z,9.63
2022-08-26T22:39:13.224Z,11.30
2022-08-26T22:41:42.017Z,12.82
2022-08-26T22:44:11.176Z,10.00
2022-08-26T22:46:39.541Z,10.30
2022-08-26T22:49:09.733Z,12.18
2022-08-26T22:51:38.998Z,15.63
2022-08-26T22:54:07.562Z,16.15
2022-08-26T22:56:35.826Z,15.15
2022-08-26T22:59:04.140Z,16.92
2022-08-26T23:01:32.226Z,19.15
2022-08-26T23:04:00.157Z,26.73
2022-08-26T23:06:28.068Z,20.25
2022-08-26T23:08:57.367Z,29.90
2022-08-26T23:11:25.273Z,18.02
2022-08-26T23:13:53.149Z,20.48
2022-08-26T23:16:21.132Z,21.98
2022-08-26T23:18:49.895Z,18.15
2022-08-26T23:21:17.792Z,19.02
2022-08-26T23:23:45.950Z,21.60
2022-08-26T23:26:17.790Z,23.30
2022-08-26T23:28:45.834Z,19.02
2022-08-26T23:31:14.733Z,24.70
2022-08-26T23:34:05.623Z,23.15
2022-08-26T23:36:35.108Z,20.33
2022-08-26T23:39:03.576Z,23.42
2022-08-26T23:41:32.944Z,24.08
2022-08-26T23:44:03.516Z,29.15
2022-08-26T23:46:31.987Z,26.10
2022-08-26T23:49:00.097Z,25.55
2022-08-26T23:51:46.050Z,28.17
2022-08-26T23:54:14.865Z,28.63
2022-08-26T23:56:44.780Z,28.25
2022-08-26T23:59:13.222Z,24.02
